createdAt,value
2023-06-04T00:01:16.316Z,60.25
2023-06-04T00:03:20.652Z,60.23
2023-06-04T00:05:26.512Z,60.61
2023-06-04T00:07:29.932Z,60.45
2023-06-04T00:09:36.317Z,60.47
2023-06-04T00:11:41.225Z,60.45
2023-06-04T00:13:44.579Z,60.88
2023-06-04T00:15:48.127Z,60.88
2023-06-04T00:17:51.761Z,60.97
2023-06-04T00:19:55.209Z,61.05
2023-06-04T00:21:58.673Z,60.98
2023-06-04T00:24:02.566Z,61.06
2023-06-04T00:26:06.525Z,61.13
2023-06-04T00:28:11.355Z,61.06
2023-06-04T00:30:15.508Z,61.13
2023-06-04T00:32:19.030Z,61.24
2023-06-04T00:34:22.693Z,61.32
2023-06-04T00:36:26.137Z,61.26
2023-06-04T00:38:29.550Z,61.20
2023-06-04T00:40:32.934Z,61.21
2023-06-04T00:42:36.354Z,61.27
2023-06-04T00:44:44.413Z,61.40
2023-06-04T00:46:48.808Z,61.67
2023-06-04T00:48:52.223Z,61.70
2023-06-04T00:50:56.237Z,61.97
2023-06-04T00:52:59.642Z,62.21
2023-06-04T00:55:03.576Z,62.33
2023-06-04T00:57:08.264Z,62.31
2023-06-04T00:59:11.868Z,62.48
2023-06-04T01:01:23.552Z,62.65
2023-06-04T01:03:32.671Z,62.65
2023-06-04T01:05:43.481Z,62.88
2023-06-04T01:07:48.154Z,62.83
2023-06-04T01:09:51.923Z,62.79
2023-06-04T01:11:55.332Z,62.88
2023-06-04T01:13:58.717Z,63.06
2023-06-04T01:16:03.028Z,63.36
2023-06-04T01:18:08.266Z,63.43
2023-06-04T01:20:22.363Z,63.62
2023-06-04T01:22:35.576Z,63.68
2023-06-04T01:24:43.571Z,63.94
2023-06-04T01:26:47.516Z,64.19
2023-06-04T01:28:52.028Z,64.37
2023-06-04T01:30:57.704Z,64.55
2023-06-04T01:33:02.310Z,64.83
2023-06-04T01:35:10.742Z,64.95
2023-06-04T01:37:14.578Z,64.99
2023-06-04T01:39:18.294Z,65.07
2023-06-04T01:41:21.761Z,65.32
2023-06-04T01:43:25.371Z,65.59
2023-06-04T01:45:30.277Z,65.56
2023-06-04T01:47:33.794Z,65.61
2023-06-04T01:49:38.915Z,65.76
2023-06-04T01:51:43.901Z,65.79
2023-06-04T01:53:47.312Z,65.83
2023-06-04T01:55:51.302Z,65.86
2023-06-04T01:57:54.721Z,66.05
2023-06-04T01:59:58.211Z,66.29
2023-06-04T02:02:03.048Z,66.34
2023-06-04T02:04:06.766Z,66.58
2023-06-04T02:06:10.227Z,66.54
2023-06-04T02:08:20.300Z,66.65
2023-06-04T02:10:23.961Z,66.87
2023-06-04T02:12:27.391Z,66.83
2023-06-04T02:14:30.827Z,66.96
2023-06-04T02:16:34.268Z,67.01
2023-06-04T02:18:37.682Z,67.22
2023-06-04T02:20:41.197Z,67.41
2023-06-04T02:22:44.702Z,67.55
2023-06-04T02:24:49.529Z,67.44
2023-06-04T02:26:53.114Z,67.63
2023-06-04T02:28:56.518Z,67.94
2023-06-04T02:30:59.869Z,67.94
2023-06-04T02:33:03.357Z,68.01
2023-06-04T02:35:07.527Z,68.07
2023-06-04T02:37:10.944Z,68.16
2023-06-04T02:39:14.370Z,68.12
2023-06-04T02:41:19.163Z,68.23
2023-06-04T02:43:22.562Z,68.31
2023-06-04T02:45:26.107Z,68.44
2023-06-04T02:47:30.009Z,68.62
2023-06-04T02:49:33.518Z,68.51
2023-06-04T02:51:36.901Z,68.65
2023-06-04T02:53:40.331Z,68.78
2023-06-04T02:55:43.963Z,69.03
2023-06-04T02:57:48.772Z,68.92
2023-06-04T02:59:53.152Z,68.96
2023-06-04T03:01:56.907Z,68.97
2023-06-04T03:04:00.345Z,69.08
2023-06-04T03:06:05.976Z,69.16
2023-06-04T03:08:09.464Z,69.23
2023-06-04T03:10:13.855Z,69.31
2023-06-04T03:12:17.408Z,69.45
2023-06-04T03:14:22.313Z,69.62
2023-06-04T03:16:26.004Z,69.51
2023-06-04T03:18:29.582Z,69.61
2023-06-04T03:20:39.561Z,69.58
2023-06-04T03:22:43.284Z,69.77
2023-06-04T03:24:46.907Z,69.67
2023-06-04T03:26:50.329Z,69.65
2023-06-04T03:28:54.019Z,69.54
2023-06-04T03:31:00.298Z,69.54
2023-06-04T03:33:04.987Z,69.72
2023-06-04T03:35:09.622Z,69.93
2023-06-04T03:37:13.085Z,69.95
2023-06-04T03:39:16.765Z,70.07
2023-06-04T03:41:21.174Z,70.13
2023-06-04T03:43:24.647Z,70.14
2023-06-04T03:45:32.249Z,70.23
2023-06-04T03:47:37.468Z,70.23
2023-06-04T03:49:41.857Z,70.21
2023-06-04T03:51:45.704Z,70.11
2023-06-04T03:53:50.058Z,70.31
2023-06-04T03:55:53.427Z,70.34
2023-06-04T03:57:56.914Z,70.46
2023-06-04T04:00:00.731Z,70.65
2023-06-04T04:02:04.240Z,70.39
2023-06-04T04:04:09.233Z,70.43
2023-06-04T04:06:13.129Z,70.43
2023-06-04T04:08:17.556Z,70.34
2023-06-04T04:10:21.917Z,70.28
2023-06-04T04:12:25.548Z,70.15
2023-06-04T04:14:29.310Z,69.97
2023-06-04T04:16:32.954Z,69.96
2023-06-04T04:18:37.215Z,69.91
2023-06-04T04:20:42.156Z,69.95
2023-06-04T04:22:49.820Z,69.79
2023-06-04T04:24:54.686Z,69.62
2023-06-04T04:26:59.906Z,69.25
2023-06-04T04:29:05.034Z,69.23
2023-06-04T04:31:10.119Z,69.19
2023-06-04T04:33:16.854Z,69.06
2023-06-04T04:35:25.014Z,68.96
2023-06-04T04:37:32.245Z,68.80
2023-06-04T04:39:37.864Z,68.71
2023-06-04T04:41:41.414Z,68.88
2023-06-04T04:43:44.914Z,68.80
2023-06-04T04:45:57.091Z,68.84
2023-06-04T04:48:00.825Z,68.98
2023-06-04T04:50:04.511Z,69.05
2023-06-04T04:52:07.989Z,68.99
2023-06-04T04:54:14.266Z,68.99
2023-06-04T04:56:18.884Z,69.08
2023-06-04T04:58:25.737Z,69.05
2023-06-04T05:00:31.592Z,69.12
2023-06-04T05:02:35.206Z,69.18
2023-06-04T05:04:38.776Z,69.19
2023-06-04T05:06:42.837Z,69.04
2023-06-04T05:08:46.297Z,69.25
2023-06-04T05:10:53.044Z,69.16
2023-06-04T05:12:58.172Z,69.12
2023-06-04T05:15:08.081Z,69.12
2023-06-04T05:17:12.248Z,69.02
2023-06-04T05:19:18.116Z,68.84
2023-06-04T05:21:21.837Z,68.64
2023-06-04T05:23:33.478Z,68.46
2023-06-04T05:25:37.661Z,68.33
2023-06-04T05:27:43.525Z,68.38
2023-06-04T05:29:48.505Z,68.16
2023-06-04T05:31:52.291Z,68.09
2023-06-04T05:33:58.677Z,68.27
2023-06-04T05:36:04.551Z,68.08
2023-06-04T05:38:16.794Z,67.97
2023-06-04T05:40:20.530Z,67.85
2023-06-04T05:42:24.818Z,67.56
2023-06-04T05:44:29.971Z,67.44
2023-06-04T05:46:33.757Z,67.37
2023-06-04T05:48:38.123Z,67.30
2023-06-04T05:50:41.650Z,67.05
2023-06-04T05:52:45.274Z,66.83
2023-06-04T05:54:49.976Z,66.71
2023-06-04T05:56:54.022Z,66.47
2023-06-04T05:58:57.515Z,66.29
2023-06-04T06:01:04.161Z,66.20
2023-06-04T06:03:08.304Z,66.10
2023-06-04T06:05:18.822Z,65.55
2023-06-04T06:07:22.686Z,65.61
2023-06-04T06:09:26.225Z,65.40
2023-06-04T06:11:29.866Z,64.79
2023-06-04T06:13:34.182Z,64.67
2023-06-04T06:15:37.785Z,64.58
2023-06-04T06:17:42.656Z,64.21
2023-06-04T06:19:46.181Z,64.06
2023-06-04T06:21:49.697Z,64.01
2023-06-04T06:23:54.009Z,63.92
2023-06-04T06:25:58.168Z,63.91
2023-06-04T06:28:05.129Z,63.48
2023-06-04T06:30:11.198Z,63.32
2023-06-04T06:32:15.057Z,63.11
2023-06-04T06:34:19.906Z,63.12
2023-06-04T06:36:23.396Z,62.47
2023-06-04T06:38:26.792Z,62.29
2023-06-04T06:40:31.564Z,61.95
2023-06-04T06:42:35.189Z,61.54
2023-06-04T06:44:38.570Z,61.25
2023-06-04T06:46:42.036Z,61.25
2023-06-04T06:48:46.594Z,60.95
2023-06-04T06:50:51.845Z,60.65
2023-06-04T06:52:55.247Z,60.39
2023-06-04T06:54:58.678Z,60.11
2023-06-04T06:57:02.113Z,59.53
2023-06-04T06:59:05.697Z,59.37
2023-06-04T07:01:09.453Z,58.90
2023-06-04T07:03:13.223Z,58.28
2023-06-04T07:05:18.336Z,58.34
2023-06-04T07:07:23.197Z,58.08
2023-06-04T07:09:26.673Z,57.96
2023-06-04T07:11:30.131Z,57.59
2023-06-04T07:13:36.360Z,57.13
2023-06-04T07:15:39.865Z,56.63
2023-06-04T07:17:43.319Z,55.85
2023-06-04T07:19:46.739Z,55.52
2023-06-04T07:21:50.183Z,55.34
2023-06-04T07:23:55.207Z,54.84
2023-06-04T07:25:58.982Z,54.26
2023-06-04T07:28:05.130Z,53.40
2023-06-04T07:30:09.951Z,53.25
2023-06-04T07:32:13.955Z,53.02
2023-06-04T07:34:17.609Z,52.62
2023-06-04T07:36:21.765Z,52.24
2023-06-04T07:38:25.373Z,52.28
2023-06-04T07:40:30.391Z,51.42
2023-06-04T07:42:33.845Z,51.34
2023-06-04T07:44:39.422Z,50.73
2023-06-04T07:46:42.957Z,49.83
2023-06-04T07:48:46.422Z,50.15
2023-06-04T07:50:49.977Z,49.56
2023-06-04T07:52:53.431Z,49.48
2023-06-04T07:54:56.869Z,49.64
2023-06-04T07:57:01.671Z,49.96
2023-06-04T07:59:05.098Z,48.86
2023-06-04T08:01:08.883Z,48.45
2023-06-04T08:03:12.565Z,47.82
2023-06-04T08:05:16.129Z,47.25
2023-06-04T08:07:19.640Z,46.19
2023-06-04T08:09:23.240Z,46.57
2023-06-04T08:11:26.828Z,45.91
2023-06-04T08:13:31.778Z,45.78
2023-06-04T08:15:35.176Z,45.18
2023-06-04T08:17:58.626Z,44.61
2023-06-04T08:20:02.153Z,44.50
2023-06-04T08:22:18.622Z,44.18
2023-06-04T08:24:40.089Z,44.24
2023-06-04T08:27:03.438Z,43.16
2023-06-04T08:29:12.411Z,42.68
2023-06-04T08:31:27.675Z,42.50
2023-06-04T08:33:42.651Z,42.16
2023-06-04T08:35:50.650Z,41.42
2023-06-04T08:37:54.094Z,40.94
2023-06-04T08:39:57.509Z,41.05
2023-06-04T08:42:03.994Z,40.32
2023-06-04T08:44:08.135Z,39.96
2023-06-04T08:46:14.504Z,39.87
2023-06-04T08:48:20.942Z,39.43
2023-06-04T08:50:25.606Z,39.24
2023-06-04T08:52:29.604Z,38.72
2023-06-04T08:54:33.763Z,38.88
2023-06-04T08:56:38.071Z,38.52
2023-06-04T08:58:44.166Z,38.28
2023-06-04T09:00:47.619Z,37.79
2023-06-04T09:02:52.671Z,37.51
2023-06-04T09:04:56.816Z,37.78
2023-06-04T09:07:04.632Z,37.95
2023-06-04T09:09:11.911Z,38.04
2023-06-04T09:11:17.926Z,38.19
2023-06-04T09:13:25.274Z,38.15
2023-06-04T09:15:28.641Z,38.18
2023-06-04T09:17:32.082Z,38.51
2023-06-04T09:19:36.938Z,37.87
2023-06-04T09:21:52.053Z,37.45
2023-06-04T09:23:55.552Z,37.65
2023-06-04T09:25:58.893Z,36.95
2023-06-04T09:28:08.506Z,36.87
2023-06-04T09:30:12.591Z,37.05
2023-06-04T09:32:16.105Z,36.69
2023-06-04T09:34:30.081Z,36.70
2023-06-04T09:36:37.247Z,36.67
2023-06-04T09:38:43.470Z,36.75
2023-06-04T09:40:51.801Z,36.55
2023-06-04T09:42:56.914Z,36.26
2023-06-04T09:45:02.457Z,36.25
2023-06-04T09:47:06.576Z,36.45
2023-06-04T09:49:10.057Z,36.82
2023-06-04T09:51:16.327Z,36.59
2023-06-04T09:53:23.992Z,36.26
2023-06-04T09:55:29.929Z,36.30
2023-06-04T09:57:37.149Z,36.85
2023-06-04T09:59:42.804Z,36.53
2023-06-04T10:01:46.911Z,36.52
2023-06-04T10:03:53.563Z,36.85
2023-06-04T10:05:59.279Z,35.50
2023-06-04T10:08:07.012Z,35.49
2023-06-04T10:10:17.218Z,35.02
2023-06-04T10:12:25.841Z,35.13
2023-06-04T10:14:38.232Z,35.05
2023-06-04T10:16:43.378Z,34.91
2023-06-04T10:18:47.229Z,34.21
2023-06-04T10:20:51.853Z,33.70
2023-06-04T10:22:56.509Z,33.94
2023-06-04T10:25:01.278Z,33.89
2023-06-04T10:27:12.142Z,33.83
2023-06-04T10:29:16.811Z,34.47
2023-06-04T10:31:20.797Z,34.05
2023-06-04T10:33:25.744Z,34.04
2023-06-04T10:35:33.417Z,33.96
2023-06-04T10:37:39.408Z,34.29
2023-06-04T10:39:55.334Z,33.62
2023-06-04T10:42:03.766Z,33.77
2023-06-04T10:44:09.303Z,33.41
2023-06-04T10:46:18.899Z,33.87
2023-06-04T10:48:27.437Z,33.43
2023-06-04T10:50:40.508Z,33.74
2023-06-04T10:52:58.988Z,33.59
2023-06-04T10:55:18.054Z,33.65
2023-06-04T10:57:23.430Z,33.48
2023-06-04T10:59:31.289Z,33.36
2023-06-04T11:01:39.772Z,32.93
2023-06-04T11:03:45.646Z,33.40
2023-06-04T11:05:55.609Z,33.69
2023-06-04T11:08:06.555Z,33.81
2023-06-04T11:10:23.786Z,33.40
2023-06-04T11:12:31.468Z,33.23
2023-06-04T11:14:39.329Z,32.84
2023-06-04T11:16:44.714Z,32.57
2023-06-04T11:19:00.765Z,31.83
2023-06-04T11:21:09.648Z,31.98
2023-06-04T11:23:20.177Z,32.19
2023-06-04T11:25:28.468Z,31.59
2023-06-04T11:27:40.519Z,31.82
2023-06-04T11:29:53.744Z,31.85
2023-06-04T11:32:01.522Z,30.81
2023-06-04T11:34:07.360Z,31.11
2023-06-04T11:36:27.109Z,30.85
2023-06-04T11:38:33.332Z,30.56
2023-06-04T11:40:44.357Z,30.42
2023-06-04T11:42:55.988Z,30.51
2023-06-04T11:45:05.460Z,30.30
2023-06-04T11:47:15.522Z,30.25
2023-06-04T11:49:26.686Z,30.27
2023-06-04T11:51:39.995Z,30.40
2023-06-04T11:53:48.291Z,29.97
2023-06-04T11:55:55.657Z,29.44
2023-06-04T11:58:05.063Z,29.51
2023-06-04T12:00:17.372Z,30.11
2023-06-04T12:02:28.712Z,29.91
2023-06-04T12:04:36.326Z,30.29
2023-06-04T12:07:02.984Z,29.48
2023-06-04T12:09:07.053Z,29.66
2023-06-04T12:11:10.498Z,29.58
2023-06-04T12:13:13.990Z,29.09
2023-06-04T12:15:23.619Z,29.41
2023-06-04T12:17:27.283Z,29.53
2023-06-04T12:19:31.300Z,28.98
2023-06-04T12:21:34.829Z,28.77
2023-06-04T12:23:38.327Z,28.53
2023-06-04T12:25:42.177Z,28.90
2023-06-04T12:27:50.153Z,29.74
2023-06-04T12:30:00.819Z,29.20
2023-06-04T12:32:11.990Z,29.50
2023-06-04T12:34:16.476Z,28.48
2023-06-04T12:36:19.989Z,28.66
2023-06-04T12:38:23.732Z,29.37
2023-06-04T12:40:31.368Z,28.56
2023-06-04T12:42:35.224Z,29.11
2023-06-04T12:44:38.937Z,29.37
2023-06-04T12:46:42.438Z,29.72
2023-06-04T12:48:47.428Z,29.72
2023-06-04T12:50:50.959Z,29.43
2023-06-04T12:52:54.433Z,28.72
2023-06-04T12:54:57.906Z,29.34
2023-06-04T12:57:02.358Z,28.82
2023-06-04T12:59:06.505Z,28.75
2023-06-04T13:01:10.395Z,28.39
2023-06-04T13:03:14.590Z,28.64
2023-06-04T13:05:25.571Z,28.39
2023-06-04T13:07:29.341Z,28.31
2023-06-04T13:09:34.093Z,28.39
2023-06-04T13:11:42.891Z,28.08
2023-06-04T13:13:46.485Z,27.87
2023-06-04T13:15:50.139Z,28.36
2023-06-04T13:17:53.705Z,27.49
2023-06-04T13:19:59.311Z,27.02
2023-06-04T13:22:04.394Z,26.98
2023-06-04T13:24:09.024Z,27.21
2023-06-04T13:26:12.890Z,26.84
2023-06-04T13:28:18.453Z,26.98
2023-06-04T13:30:21.968Z,26.91
2023-06-04T13:32:26.269Z,26.86
2023-06-04T13:34:29.870Z,26.87
2023-06-04T13:36:33.504Z,26.36
2023-06-04T13:38:38.614Z,25.60
2023-06-04T13:40:42.872Z,25.74
2023-06-04T13:42:47.864Z,25.94
2023-06-04T13:44:51.484Z,25.56
2023-06-04T13:46:55.286Z,25.57
2023-06-04T13:48:59.013Z,25.38
2023-06-04T13:51:02.477Z,25.13
2023-06-04T13:53:06.128Z,24.63
2023-06-04T13:55:12.312Z,24.51
2023-06-04T13:57:15.779Z,24.76
2023-06-04T13:59:19.256Z,24.84
2023-06-04T14:01:24.671Z,25.03
2023-06-04T14:03:28.298Z,24.15
2023-06-04T14:05:32.442Z,23.90
2023-06-04T14:07:36.295Z,24.66
2023-06-04T14:09:39.800Z,24.27
2023-06-04T14:11:46.077Z,24.39
2023-06-04T14:13:50.608Z,24.16
2023-06-04T14:15:54.170Z,24.29
2023-06-04T14:17:58.456Z,23.88
2023-06-04T14:20:01.958Z,23.73
2023-06-04T14:22:05.972Z,23.63
2023-06-04T14:24:11.151Z,23.05
2023-06-04T14:26:15.344Z,23.75
2023-06-04T14:28:22.094Z,23.48
2023-06-04T14:30:25.687Z,23.32
2023-06-04T14:32:29.212Z,23.55
2023-06-04T14:34:33.235Z,22.96
2023-06-04T14:36:37.206Z,23.71
2023-06-04T14:38:41.091Z,22.58
2023-06-04T14:40:47.562Z,22.50
2023-06-04T14:42:52.086Z,22.99
2023-06-04T14:44:57.149Z,23.09
2023-06-04T14:47:01.461Z,23.46
2023-06-04T14:49:04.957Z,22.82
2023-06-04T14:51:09.068Z,22.92
2023-06-04T14:53:13.602Z,23.09
2023-06-04T14:55:17.206Z,23.14
2023-06-04T14:57:20.740Z,22.72
2023-06-04T14:59:24.467Z,23.20
2023-06-04T15:01:29.771Z,23.22
2023-06-04T15:03:33.482Z,23.41
2023-06-04T15:05:37.980Z,23.09
2023-06-04T15:07:41.492Z,23.49
2023-06-04T15:09:44.935Z,23.86
2023-06-04T15:11:48.418Z,24.15
2023-06-04T15:13:51.895Z,24.19
2023-06-04T15:15:55.368Z,24.23
2023-06-04T15:18:00.303Z,23.83
2023-06-04T15:20:04.507Z,23.98
2023-06-04T15:22:07.948Z,24.27
2023-06-04T15:24:11.446Z,24.24
2023-06-04T15:26:15.070Z,24.47
2023-06-04T15:28:21.812Z,24.63
2023-06-04T15:30:25.364Z,24.50
2023-06-04T15:32:28.869Z,24.45
2023-06-04T15:34:33.953Z,24.44
2023-06-04T15:36:38.660Z,24.45
2023-06-04T15:38:42.120Z,24.54
2023-06-04T15:40:45.639Z,24.39
2023-06-04T15:42:49.144Z,24.68
2023-06-04T15:44:52.590Z,24.53
2023-06-04T15:46:56.101Z,24.25
2023-06-04T15:48:59.691Z,24.22
2023-06-04T15:51:04.733Z,24.63
2023-06-04T15:53:08.141Z,24.59
2023-06-04T15:55:11.776Z,24.66
2023-06-04T15:57:15.436Z,24.65
2023-06-04T15:59:18.952Z,24.94
2023-06-04T16:01:22.818Z,24.92
2023-06-04T16:03:26.298Z,24.92
2023-06-04T16:05:29.861Z,24.79
2023-06-04T16:07:35.113Z,25.05
2023-06-04T16:09:38.683Z,25.28
2023-06-04T16:11:42.155Z,25.25
2023-06-04T16:13:45.924Z,25.63
2023-06-04T16:15:49.465Z,26.30
2023-06-04T16:17:53.163Z,26.71
2023-06-04T16:19:56.669Z,26.81
2023-06-04T16:22:00.332Z,27.36
2023-06-04T16:24:05.493Z,27.90
2023-06-04T16:26:10.055Z,28.45
2023-06-04T16:28:13.603Z,28.55
2023-06-04T16:30:17.255Z,29.27
2023-06-04T16:32:20.706Z,29.58
2023-06-04T16:34:24.259Z,29.94
2023-06-04T16:36:27.916Z,30.10
2023-06-04T16:38:31.400Z,30.31
2023-06-04T16:40:36.338Z,31.16
2023-06-04T16:42:39.927Z,31.23
2023-06-04T16:44:43.366Z,31.35
2023-06-04T16:46:47.001Z,31.72
2023-06-04T16:48:50.863Z,31.48
2023-06-04T16:50:56.782Z,31.64
2023-06-04T16:53:00.394Z,31.86
2023-06-04T16:55:03.972Z,32.37
2023-06-04T16:57:08.964Z,32.71
2023-06-04T16:59:12.867Z,32.66
2023-06-04T17:01:16.552Z,32.85
2023-06-04T17:03:20.265Z,32.99
2023-06-04T17:05:25.445Z,33.08
2023-06-04T17:07:30.692Z,33.20
2023-06-04T17:09:34.834Z,33.03
2023-06-04T17:11:40.023Z,33.02
2023-06-04T17:13:45.034Z,32.90
2023-06-04T17:15:48.511Z,32.96
2023-06-04T17:17:52.111Z,33.08
2023-06-04T17:19:55.607Z,32.88
2023-06-04T17:21:58.959Z,33.36
2023-06-04T17:24:03.623Z,33.34
2023-06-04T17:26:07.871Z,33.79
2023-06-04T17:28:11.487Z,33.71
2023-06-04T17:30:16.443Z,33.87
2023-06-04T17:32:19.917Z,33.62
2023-06-04T17:34:23.394Z,34.36
2023-06-04T17:36:26.980Z,34.65
2023-06-04T17:38:30.637Z,34.34
2023-06-04T17:40:34.058Z,34.67
2023-06-04T17:42:37.505Z,34.45
2023-06-04T17:44:41.014Z,34.08
2023-06-04T17:46:46.367Z,34.34
2023-06-04T17:48:49.827Z,34.54
2023-06-04T17:50:53.256Z,34.55
2023-06-04T17:52:58.717Z,35.04
2023-06-04T17:55:04.364Z,34.96
2023-06-04T17:57:07.909Z,34.84
2023-06-04T17:59:11.399Z,34.89
2023-06-04T18:01:14.826Z,35.26
2023-06-04T18:03:19.821Z,35.33
2023-06-04T18:05:23.393Z,36.08
2023-06-04T18:07:26.840Z,35.73
2023-06-04T18:09:30.347Z,36.16
2023-06-04T18:11:33.854Z,35.95
2023-06-04T18:13:37.334Z,36.15
2023-06-04T18:15:40.844Z,36.78
2023-06-04T18:17:44.522Z,36.85
2023-06-04T18:19:50.103Z,36.99
2023-06-04T18:21:53.546Z,37.31
2023-06-04T18:23:58.045Z,38.10
2023-06-04T18:26:02.400Z,38.26
2023-06-04T18:28:05.871Z,38.29
2023-06-04T18:30:10.602Z,38.45
2023-06-04T18:32:14.093Z,38.79
2023-06-04T18:34:21.661Z,39.28
2023-06-04T18:36:26.554Z,39.33
2023-06-04T18:38:29.948Z,39.51
2023-06-04T18:40:33.376Z,40.01
2023-06-04T18:42:36.722Z,39.99
2023-06-04T18:44:40.276Z,39.82
2023-06-04T18:46:43.778Z,39.87
2023-06-04T18:48:48.100Z,40.54
2023-06-04T18:50:51.638Z,40.39
2023-06-04T18:52:56.671Z,41.08
2023-06-04T18:55:00.158Z,41.02
2023-06-04T18:57:03.665Z,41.07
2023-06-04T18:59:07.140Z,41.14
2023-06-04T19:01:10.683Z,41.43
2023-06-04T19:03:14.226Z,42.03
2023-06-04T19:05:18.554Z,42.46
2023-06-04T19:07:22.120Z,42.16
2023-06-04T19:09:26.958Z,42.16
2023-06-04T19:11:30.937Z,42.71
2023-06-04T19:13:34.405Z,42.75
2023-06-04T19:15:37.802Z,43.02
2023-06-04T19:17:42.760Z,43.49
2023-06-04T19:19:46.434Z,43.60
2023-06-04T19:21:53.056Z,43.81
2023-06-04T19:23:56.999Z,44.34
2023-06-04T19:26:01.988Z,44.56
2023-06-04T19:28:06.773Z,44.80
2023-06-04T19:30:11.781Z,44.83
2023-06-04T19:32:15.296Z,44.89
2023-06-04T19:34:18.706Z,45.48
2023-06-04T19:36:22.150Z,45.95
2023-06-04T19:38:25.575Z,45.83
2023-06-04T19:40:28.971Z,45.99
2023-06-04T19:42:33.793Z,46.66
2023-06-04T19:44:37.205Z,46.71
2023-06-04T19:46:40.634Z,47.21
2023-06-04T19:48:44.105Z,47.54
2023-06-04T19:50:47.561Z,48.05
2023-06-04T19:52:52.131Z,48.07
2023-06-04T19:54:55.531Z,48.95
2023-06-04T19:56:58.916Z,48.75
2023-06-04T19:59:03.751Z,48.85
2023-06-04T20:01:07.221Z,49.51
2023-06-04T20:03:10.812Z,49.78
2023-06-04T20:05:16.086Z,50.07
2023-06-04T20:07:19.531Z,50.34
2023-06-04T20:09:23.893Z,50.39
2023-06-04T20:11:27.421Z,50.81
2023-06-04T20:13:30.891Z,51.05
2023-06-04T20:15:35.771Z,51.15
2023-06-04T20:17:39.191Z,51.29
2023-06-04T20:19:42.737Z,51.36
2023-06-04T20:21:46.151Z,51.83
2023-06-04T20:23:53.529Z,51.88
2023-06-04T20:26:00.049Z,52.17
2023-06-04T20:28:03.645Z,52.76
2023-06-04T20:30:08.625Z,52.97
2023-06-04T20:32:13.459Z,53.07
2023-06-04T20:34:16.977Z,53.38
2023-06-04T20:36:20.473Z,53.70
2023-06-04T20:38:23.938Z,54.40
2023-06-04T20:40:27.318Z,54.35
2023-06-04T20:42:30.719Z,54.80
2023-06-04T20:44:34.699Z,55.05
2023-06-04T20:46:38.330Z,55.17
2023-06-04T20:48:43.589Z,55.64
2023-06-04T20:50:48.419Z,55.73
2023-06-04T20:52:52.035Z,55.95
2023-06-04T20:54:55.648Z,56.40
2023-06-04T20:56:59.180Z,56.77
2023-06-04T20:59:02.570Z,56.89
2023-06-04T21:01:06.064Z,57.10
2023-06-04T21:03:09.615Z,57.25
2023-06-04T21:05:14.524Z,57.67
2023-06-04T21:07:18.448Z,57.77
2023-06-04T21:09:22.004Z,58.07
2023-06-04T21:11:25.376Z,58.45
2023-06-04T21:13:28.888Z,58.64
2023-06-04T21:15:32.278Z,58.83
2023-06-04T21:17:35.860Z,59.12
2023-06-04T21:19:39.407Z,59.30
2023-06-04T21:21:44.305Z,59.67
2023-06-04T21:23:47.802Z,59.75
2023-06-04T21:25:51.686Z,59.97
2023-06-04T21:27:55.083Z,60.33
2023-06-04T21:29:58.557Z,60.56
2023-06-04T21:32:02.099Z,60.79
2023-06-04T21:34:05.911Z,60.94
2023-06-04T21:36:09.335Z,61.08
2023-06-04T21:38:14.302Z,61.47
2023-06-04T21:40:17.769Z,61.65
2023-06-04T21:42:21.197Z,61.95
2023-06-04T21:44:25.273Z,62.12
2023-06-04T21:46:29.502Z,62.36
2023-06-04T21:48:32.931Z,62.57
2023-06-04T21:50:36.385Z,62.84
2023-06-04T21:52:40.084Z,62.91
2023-06-04T21:54:45.029Z,63.21
2023-06-04T21:56:48.721Z,63.31
2023-06-04T21:58:52.221Z,63.53
2023-06-04T22:00:56.063Z,63.74
2023-06-04T22:02:59.791Z,63.81
2023-06-04T22:05:03.359Z,63.94
2023-06-04T22:07:06.932Z,64.24
2023-06-04T22:09:10.420Z,64.30
2023-06-04T22:11:15.317Z,64.56
2023-06-04T22:13:18.710Z,64.62
2023-06-04T22:15:22.413Z,64.89
2023-06-04T22:17:25.890Z,65.03
2023-06-04T22:19:29.308Z,65.13
2023-06-04T22:21:32.758Z,65.32
2023-06-04T22:23:36.569Z,65.39
2023-06-04T22:25:40.041Z,65.58
2023-06-04T22:27:45.154Z,65.71
2023-06-04T22:29:48.722Z,65.91
2023-06-04T22:31:52.175Z,66.19
2023-06-04T22:33:55.718Z,66.13
2023-06-04T22:35:59.209Z,66.28
2023-06-04T22:38:02.566Z,66.47
2023-06-04T22:40:07.404Z,66.53
2023-06-04T22:42:11.013Z,66.69
2023-06-04T22:44:16.306Z,66.87
2023-06-04T22:46:19.861Z,67.01
2023-06-04T22:48:23.433Z,67.11
2023-06-04T22:50:27.926Z,67.42
2023-06-04T22:52:31.783Z,67.62
2023-06-04T22:54:35.356Z,67.90
2023-06-04T22:56:38.745Z,67.94
2023-06-04T22:58:42.398Z,68.22
2023-06-04T23:00:50.328Z,68.32
2023-06-04T23:02:54.132Z,68.42
2023-06-04T23:04:57.712Z,68.49
2023-06-04T23:07:01.221Z,68.86
2023-06-04T23:09:04.914Z,68.90
2023-06-04T23:11:08.837Z,69.12
2023-06-04T23:13:12.582Z,69.15
2023-06-04T23:15:22.540Z,69.31
2023-06-04T23:17:27.695Z,69.51
2023-06-04T23:19:31.229Z,69.60
2023-06-04T23:21:34.752Z,69.66
2023-06-04T23:23:38.302Z,69.85
2023-06-04T23:25:41.767Z,70.00
2023-06-04T23:27:45.240Z,70.20
2023-06-04T23:29:48.772Z,70.24
2023-06-04T23:31:52.376Z,70.61
2023-06-04T23:33:57.342Z,70.52
2023-06-04T23:36:00.973Z,70.58
2023-06-04T23:38:04.520Z,70.68
2023-06-04T23:40:09.444Z,70.73
2023-06-04T23:42:12.997Z,70.83
2023-06-04T23:44:18.348Z,70.87
2023-06-04T23:46:23.345Z,71.09
2023-06-04T23:48:26.898Z,71.04
2023-06-04T23:50:31.677Z,71.18
2023-06-04T23:52:35.124Z,71.29
2023-06-04T23:54:38.555Z,71.44
2023-06-04T23:56:43.340Z,71.60
2023-06-04T23:58:46.738Z,71.61
